sensor_id;sensor_type;location;lat;lon;timestamp;P1;durP1;ratioP1;P2;durP2;ratioP2
51194;SDS011;37259;49.972;19.850;2024-01-11T00:00:26;64.6;;;36.9;;
51194;SDS011;37259;49.972;19.850;2024-01-11T00:01:26;64.6;;;36.9;;
51194;SDS011;37259;49.972;19.850;2024-01-11T00:02:26;64.6;;;36.9;;
51194;SDS011;37259;49.972;19.850;2024-01-11T00:03:26;64.6;;;36.9;;
51194;SDS011;37259;49.972;19.850;2024-01-11T00:04:26;64.6;;;36.9;;
51194;SDS011;37259;49.972;19.850;2024-01-11T00:05:26;64.6;;;36.9;;
51194;SDS011;37259;49.972;19.850;2024-01-11T00:06:26;64.6;;;36.9;;
51194;SDS011;37259;49.972;19.850;2024-01-11T00:07:26;64.6;;;36.9;;
51194;SDS011;37259;49.972;19.850;2024-01-11T00:08:26;64.6;;;36.9;;
51194;SDS011;37259;49.972;19.850;2024-01-11T00:09:26;64.6;;;36.9;;
51194;SDS011;37259;49.972;19.850;2024-01-11T00:10:26;64.6;;;36.9;;
51194;SDS011;37259;49.972;19.850;2024-01-11T00:11:26;64.6;;;36.9;;
51194;SDS011;37259;49.972;19.850;2024-01-11T00:12:26;64.6;;;36.9;;
51194;SDS011;37259;49.972;19.850;2024-01-11T00:13:26;64.6;;;36.9;;
51194;SDS011;37259;49.972;19.850;2024-01-11T00:14:26;70.6;;;42.4;;
51194;SDS011;37259;49.972;19.850;2024-01-11T00:15:26;70.6;;;42.4;;
51194;SDS011;37259;49.972;19.850;2024-01-11T00:16:26;70.6;;;42.4;;
51194;SDS011;37259;49.972;19.850;2024-01-11T00:17:26;70.6;;;42.4;;
51194;SDS011;37259;49.972;19.850;2024-01-11T00:18:26;70.6;;;42.4;;
51194;SDS011;37259;49.972;19.850;2024-01-11T00:19:26;70.6;;;42.4;;
51194;SDS011;37259;49.972;19.850;2024-01-11T00:20:26;70.6;;;42.4;;
51194;SDS011;37259;49.972;19.850;2024-01-11T00:21:26;70.6;;;42.4;;
51194;SDS011;37259;49.972;19.850;2024-01-11T00:22:26;70.6;;;42.4;;
51194;SDS011;37259;49.972;19.850;2024-01-11T00:23:26;70.6;;;42.4;;
51194;SDS011;37259;49.972;19.850;2024-01-11T00:24:26;70.6;;;42.4;;
51194;SDS011;37259;49.972;19.850;2024-01-11T00:25:26;70.6;;;42.4;;
51194;SDS011;37259;49.972;19.850;2024-01-11T00:26:26;70.6;;;42.4;;
51194;SDS011;37259;49.972;19.850;2024-01-11T00:27:26;70.6;;;42.4;;
51194;SDS011;37259;49.972;19.850;2024-01-11T00:28:28;70.6;;;42.4;;
51194;SDS011;37259;49.972;19.850;2024-01-11T00:29:26;70.6;;;42.4;;
51194;SDS011;37259;49.972;19.850;2024-01-11T00:30:26;70.6;;;42.4;;
51194;SDS011;37259;49.972;19.850;2024-01-11T00:31:26;70.6;;;42.4;;
51194;SDS011;37259;49.972;19.850;2024-01-11T00:32:26;70.6;;;42.4;;
51194;SDS011;37259;49.972;19.850;2024-01-11T00:33:26;70.6;;;42.4;;
51194;SDS011;37259;49.972;19.850;2024-01-11T00:34:26;70.6;;;42.4;;
51194;SDS011;37259;49.972;19.850;2024-01-11T00:35:26;70.6;;;42.4;;
51194;SDS011;37259;49.972;19.850;2024-01-11T00:36:26;70.6;;;42.4;;
51194;SDS011;37259;49.972;19.850;2024-01-11T00:37:26;70.6;;;42.4;;
51194;SDS011;37259;49.972;19.850;2024-01-11T00:38:26;70.6;;;42.4;;
51194;SDS011;37259;49.972;19.850;2024-01-11T00:39:26;70.6;;;42.4;;
51194;SDS011;37259;49.972;19.850;2024-01-11T00:40:26;70.6;;;42.4;;
51194;SDS011;37259;49.972;19.850;2024-01-11T00:41:26;70.6;;;42.4;;
51194;SDS011;37259;49.972;19.850;2024-01-11T00:42:26;70.6;;;42.4;;
51194;SDS011;37259;49.972;19.850;2024-01-11T00:43:26;70.6;;;42.4;;
51194;SDS011;37259;49.972;19.850;2024-01-11T00:44:26;66.8;;;37.4;;
51194;SDS011;37259;49.972;19.850;2024-01-11T00:45:26;66.8;;;37.4;;
51194;SDS011;37259;49.972;19.850;2024-01-11T00:46:26;66.8;;;37.4;;
51194;SDS011;37259;49.972;19.850;2024-01-11T00:47:26;66.8;;;37.4;;
51194;SDS011;37259;49.972;19.850;2024-01-11T00:48:26;66.8;;;37.4;;
51194;SDS011;37259;49.972;19.850;2024-01-11T00:49:26;66.8;;;37.4;;
51194;SDS011;37259;49.972;19.850;2024-01-11T00:50:26;66.8;;;37.4;;
51194;SDS011;37259;49.972;19.850;2024-01-11T00:51:26;66.8;;;37.4;;
51194;SDS011;37259;49.972;19.850;2024-01-11T00:52:26;66.8;;;37.4;;
51194;SDS011;37259;49.972;19.850;2024-01-11T00:53:26;66.8;;;37.4;;
51194;SDS011;37259;49.972;19.850;2024-01-11T00:54:26;66.8;;;37.4;;
51194;SDS011;37259;49.972;19.850;2024-01-11T00:55:26;66.8;;;37.4;;
51194;SDS011;37259;49.972;19.850;2024-01-11T00:56:26;66.8;;;37.4;;
51194;SDS011;37259;49.972;19.850;2024-01-11T00:57:26;66.8;;;37.4;;
51194;SDS011;37259;49.972;19.850;2024-01-11T00:58:26;66.8;;;37.4;;
51194;SDS011;37259;49.972;19.850;2024-01-11T00:59:26;66.8;;;37.4;;
51194;SDS011;37259;49.972;19.850;2024-01-11T01:00:29;66.8;;;37.4;;
51194;SDS011;37259;49.972;19.850;2024-01-11T01:01:26;66.8;;;37.4;;
51194;SDS011;37259;49.972;19.850;2024-01-11T01:02:26;66.8;;;37.4;;
51194;SDS011;37259;49.972;19.850;2024-01-11T01:03:26;66.8;;;37.4;;
51194;SDS011;37259;49.972;19.850;2024-01-11T01:04:26;66.8;;;37.4;;
51194;SDS011;37259;49.972;19.850;2024-01-11T01:05:26;66.8;;;37.4;;
51194;SDS011;37259;49.972;19.850;2024-01-11T01:06:26;66.8;;;37.4;;
51194;SDS011;37259;49.972;19.850;2024-01-11T01:07:26;66.8;;;37.4;;
51194;SDS011;37259;49.972;19.850;2024-01-11T01:08:26;66.8;;;37.4;;
51194;SDS011;37259;49.972;19.850;2024-01-11T01:09:26;66.8;;;37.4;;
51194;SDS011;37259;49.972;19.850;2024-01-11T01:10:26;66.8;;;37.4;;
51194;SDS011;37259;49.972;19.850;2024-01-11T01:11:26;66.8;;;37.4;;
51194;SDS011;37259;49.972;19.850;2024-01-11T01:12:26;66.8;;;37.4;;
51194;SDS011;37259;49.972;19.850;2024-01-11T01:13:26;84.4;;;46.3;;
51194;SDS011;37259;49.972;19.850;2024-01-11T01:14:26;84.4;;;46.3;;
51194;SDS011;37259;49.972;19.850;2024-01-11T01:15:26;84.4;;;46.3;;
51194;SDS011;37259;49.972;19.850;2024-01-11T01:16:26;84.4;;;46.3;;
51194;SDS011;37259;49.972;19.850;2024-01-11T01:17:26;84.4;;;46.3;;
51194;SDS011;37259;49.972;19.850;2024-01-11T01:18:26;84.4;;;46.3;;
51194;SDS011;37259;49.972;19.850;2024-01-11T01:19:26;84.4;;;46.3;;
51194;SDS011;37259;49.972;19.850;2024-01-11T01:20:26;84.4;;;46.3;;
51194;SDS011;37259;49.972;19.850;2024-01-11T01:21:26;84.4;;;46.3;;
51194;SDS011;37259;49.972;19.850;2024-01-11T01:22:26;84.4;;;46.3;;
51194;SDS011;37259;49.972;19.850;2024-01-11T01:23:26;84.4;;;46.3;;
51194;SDS011;37259;49.972;19.850;2024-01-11T01:24:26;84.4;;;46.3;;
51194;SDS011;37259;49.972;19.850;2024-01-11T01:25:26;84.4;;;46.3;;
51194;SDS011;37259;49.972;19.850;2024-01-11T01:26:26;84.4;;;46.3;;
51194;SDS011;37259;49.972;19.850;2024-01-11T01:27:26;84.4;;;46.3;;
51194;SDS011;37259;49.972;19.850;2024-01-11T01:28:26;84.4;;;46.3;;
51194;SDS011;37259;49.972;19.850;2024-01-11T01:29:26;84.4;;;46.3;;
51194;SDS011;37259;49.972;19.850;2024-01-11T01:30:26;84.4;;;46.3;;
51194;SDS011;37259;49.972;19.850;2024-01-11T01:31:26;84.4;;;46.3;;
51194;SDS011;37259;49.972;19.850;2024-01-11T01:32:26;84.4;;;46.3;;
51194;SDS011;37259;49.972;19.850;2024-01-11T01:33:26;84.4;;;46.3;;
51194;SDS011;37259;49.972;19.850;2024-01-11T01:34:26;84.4;;;46.3;;
51194;SDS011;37259;49.972;19.850;2024-01-11T01:35:26;84.4;;;46.3;;
51194;SDS011;37259;49.972;19.850;2024-01-11T01:36:26;84.4;;;46.3;;
51194;SDS011;37259;49.972;19.850;2024-01-11T01:37:26;84.4;;;46.3;;
51194;SDS011;37259;49.972;19.850;2024-01-11T01:38:26;84.4;;;46.3;;
51194;SDS011;37259;49.972;19.850;2024-01-11T01:39:26;84.4;;;46.3;;
51194;SDS011;37259;49.972;19.850;2024-01-11T01:40:26;84.4;;;46.3;;
51194;SDS011;37259;49.972;19.850;2024-01-11T01:41:26;84.4;;;46.3;;
51194;SDS011;37259;49.972;19.850;2024-01-11T01:42:26;84.4;;;46.3;;
51194;SDS011;37259;49.972;19.850;2024-01-11T01:43:26;79.6;;;40;;
51194;SDS011;37259;49.972;19.850;2024-01-11T01:44:26;79.6;;;40;;
51194;SDS011;37259;49.972;19.850;2024-01-11T01:45:26;79.6;;;40;;
51194;SDS011;37259;49.972;19.850;2024-01-11T01:46:26;79.6;;;40;;
51194;SDS011;37259;49.972;19.850;2024-01-11T01:47:26;79.6;;;40;;
51194;SDS011;37259;49.972;19.850;2024-01-11T01:48:26;79.6;;;40;;
51194;SDS011;37259;49.972;19.850;2024-01-11T01:49:26;79.6;;;40;;
51194;SDS011;37259;49.972;19.850;2024-01-11T01:50:26;79.6;;;40;;
51194;SDS011;37259;49.972;19.850;2024-01-11T01:51:26;79.6;;;40;;
51194;SDS011;37259;49.972;19.850;2024-01-11T01:52:26;79.6;;;40;;
51194;SDS011;37259;49.972;19.850;2024-01-11T01:53:27;79.6;;;40;;
51194;SDS011;37259;49.972;19.850;2024-01-11T01:54:26;79.6;;;40;;
51194;SDS011;37259;49.972;19.850;2024-01-11T01:55:26;79.6;;;40;;
51194;SDS011;37259;49.972;19.850;2024-01-11T01:56:26;79.6;;;40;;
51194;SDS011;37259;49.972;19.850;2024-01-11T01:57:26;79.6;;;40;;
51194;SDS011;37259;49.972;19.850;2024-01-11T01:58:26;79.6;;;40;;
51194;SDS011;37259;49.972;19.850;2024-01-11T01:59:26;79.6;;;40;;
51194;SDS011;37259;49.972;19.850;2024-01-11T02:00:26;79.6;;;40;;
51194;SDS011;37259;49.972;19.850;2024-01-11T02:01:26;79.6;;;40;;
51194;SDS011;37259;49.972;19.850;2024-01-11T02:02:26;79.6;;;40;;
51194;SDS011;37259;49.972;19.850;2024-01-11T02:03:27;79.6;;;40;;
51194;SDS011;37259;49.972;19.850;2024-01-11T02:04:28;79.6;;;40;;
51194;SDS011;37259;49.972;19.850;2024-01-11T02:05:26;79.6;;;40;;
51194;SDS011;37259;49.972;19.850;2024-01-11T02:06:26;79.6;;;40;;
51194;SDS011;37259;49.972;19.850;2024-01-11T02:07:26;79.6;;;40;;
51194;SDS011;37259;49.972;19.850;2024-01-11T02:08:26;79.6;;;40;;
51194;SDS011;37259;49.972;19.850;2024-01-11T02:09:26;79.6;;;40;;
51194;SDS011;37259;49.972;19.850;2024-01-11T02:10:27;79.6;;;40;;
51194;SDS011;37259;49.972;19.850;2024-01-11T02:11:26;79.6;;;40;;
51194;SDS011;37259;49.972;19.850;2024-01-11T02:12:26;79.6;;;40;;
51194;SDS011;37259;49.972;19.850;2024-01-11T02:13:26;88.6;;;53.8;;
51194;SDS011;37259;49.972;19.850;2024-01-11T02:14:26;88.6;;;53.8;;
51194;SDS011;37259;49.972;19.850;2024-01-11T02:15:26;88.6;;;53.8;;
51194;SDS011;37259;49.972;19.850;2024-01-11T02:16:26;88.6;;;53.8;;
51194;SDS011;37259;49.972;19.850;2024-01-11T02:17:26;88.6;;;53.8;;
51194;SDS011;37259;49.972;19.850;2024-01-11T02:18:26;88.6;;;53.8;;
51194;SDS011;37259;49.972;19.850;2024-01-11T02:19:26;88.6;;;53.8;;
51194;SDS011;37259;49.972;19.850;2024-01-11T02:20:26;88.6;;;53.8;;
51194;SDS011;37259;49.972;19.850;2024-01-11T02:21:26;88.6;;;53.8;;
51194;SDS011;37259;49.972;19.850;2024-01-11T02:22:28;88.6;;;53.8;;
51194;SDS011;37259;49.972;19.850;2024-01-11T02:23:26;88.6;;;53.8;;
51194;SDS011;37259;49.972;19.850;2024-01-11T02:24:26;88.6;;;53.8;;
51194;SDS011;37259;49.972;19.850;2024-01-11T02:25:26;88.6;;;53.8;;
51194;SDS011;37259;49.972;19.850;2024-01-11T02:26:26;88.6;;;53.8;;
51194;SDS011;37259;49.972;19.850;2024-01-11T02:27:26;88.6;;;53.8;;
51194;SDS011;37259;49.972;19.850;2024-01-11T02:28:26;88.6;;;53.8;;
51194;SDS011;37259;49.972;19.850;2024-01-11T02:29:26;88.6;;;53.8;;
51194;SDS011;37259;49.972;19.850;2024-01-11T02:30:26;88.6;;;53.8;;
51194;SDS011;37259;49.972;19.850;2024-01-11T02:31:26;88.6;;;53.8;;
51194;SDS011;37259;49.972;19.850;2024-01-11T02:32:26;88.6;;;53.8;;
51194;SDS011;37259;49.972;19.850;2024-01-11T02:33:26;88.6;;;53.8;;
51194;SDS011;37259;49.972;19.850;2024-01-11T02:34:27;88.6;;;53.8;;
51194;SDS011;37259;49.972;19.850;2024-01-11T02:35:26;88.6;;;53.8;;
51194;SDS011;37259;49.972;19.850;2024-01-11T02:36:26;88.6;;;53.8;;
51194;SDS011;37259;49.972;19.850;2024-01-11T02:37:27;88.6;;;53.8;;
51194;SDS011;37259;49.972;19.850;2024-01-11T02:38:26;88.6;;;53.8;;
51194;SDS011;37259;49.972;19.850;2024-01-11T02:39:26;88.6;;;53.8;;
51194;SDS011;37259;49.972;19.850;2024-01-11T02:40:26;88.6;;;53.8;;
51194;SDS011;37259;49.972;19.850;2024-01-11T02:41:26;88.6;;;53.8;;
51194;SDS011;37259;49.972;19.850;2024-01-11T02:42:26;88.6;;;53.8;;
51194;SDS011;37259;49.972;19.850;2024-01-11T02:43:26;105.4;;;60.1;;
51194;SDS011;37259;49.972;19.850;2024-01-11T02:44:26;105.4;;;60.1;;
51194;SDS011;37259;49.972;19.850;2024-01-11T02:45:26;105.4;;;60.1;;
51194;SDS011;37259;49.972;19.850;2024-01-11T02:46:26;105.4;;;60.1;;
51194;SDS011;37259;49.972;19.850;2024-01-11T02:47:26;105.4;;;60.1;;
51194;SDS011;37259;49.972;19.850;2024-01-11T02:48:27;105.4;;;60.1;;
51194;SDS011;37259;49.972;19.850;2024-01-11T02:49:26;105.4;;;60.1;;
51194;SDS011;37259;49.972;19.850;2024-01-11T02:50:26;105.4;;;60.1;;
51194;SDS011;37259;49.972;19.850;2024-01-11T02:51:26;105.4;;;60.1;;
51194;SDS011;37259;49.972;19.850;2024-01-11T02:52:26;105.4;;;60.1;;
51194;SDS011;37259;49.972;19.850;2024-01-11T02:53:26;105.4;;;60.1;;
51194;SDS011;37259;49.972;19.850;2024-01-11T02:54:26;105.4;;;60.1;;
51194;SDS011;37259;49.972;19.850;2024-01-11T02:55:26;105.4;;;60.1;;
51194;SDS011;37259;49.972;19.850;2024-01-11T02:56:26;105.4;;;60.1;;
51194;SDS011;37259;49.972;19.850;2024-01-11T02:57:26;105.4;;;60.1;;
51194;SDS011;37259;49.972;19.850;2024-01-11T02:58:26;105.4;;;60.1;;
51194;SDS011;37259;49.972;19.850;2024-01-11T02:59:26;105.4;;;60.1;;
51194;SDS011;37259;49.972;19.850;2024-01-11T03:00:26;105.4;;;60.1;;
51194;SDS011;37259;49.972;19.850;2024-01-11T03:01:26;105.4;;;60.1;;
51194;SDS011;37259;49.972;19.850;2024-01-11T03:02:26;105.4;;;60.1;;
51194;SDS011;37259;49.972;19.850;2024-01-11T03:03:26;105.4;;;60.1;;
51194;SDS011;37259;49.972;19.850;2024-01-11T03:04:26;105.4;;;60.1;;
51194;SDS011;37259;49.972;19.850;2024-01-11T03:05:26;105.4;;;60.1;;
51194;SDS011;37259;49.972;19.850;2024-01-11T03:06:26;105.4;;;60.1;;
51194;SDS011;37259;49.972;19.850;2024-01-11T03:07:26;105.4;;;60.1;;
51194;SDS011;37259;49.972;19.850;2024-01-11T03:08:26;105.4;;;60.1;;
51194;SDS011;37259;49.972;19.850;2024-01-11T03:09:26;105.4;;;60.1;;
51194;SDS011;37259;49.972;19.850;2024-01-11T03:10:26;105.4;;;60.1;;
51194;SDS011;37259;49.972;19.850;2024-01-11T03:11:26;105.4;;;60.1;;
51194;SDS011;37259;49.972;19.850;2024-01-11T03:12:26;105.4;;;60.1;;
51194;SDS011;37259;49.972;19.850;2024-01-11T03:13:26;109.1;;;58;;
51194;SDS011;37259;49.972;19.850;2024-01-11T03:14:26;109.1;;;58;;
51194;SDS011;37259;49.972;19.850;2024-01-11T03:15:26;109.1;;;58;;
51194;SDS011;37259;49.972;19.850;2024-01-11T03:16:26;109.1;;;58;;
51194;SDS011;37259;49.972;19.850;2024-01-11T03:17:26;109.1;;;58;;
51194;SDS011;37259;49.972;19.850;2024-01-11T03:18:26;109.1;;;58;;
51194;SDS011;37259;49.972;19.850;2024-01-11T03:19:26;109.1;;;58;;
51194;SDS011;37259;49.972;19.850;2024-01-11T03:20:26;109.1;;;58;;
51194;SDS011;37259;49.972;19.850;2024-01-11T03:21:26;109.1;;;58;;
51194;SDS011;37259;49.972;19.850;2024-01-11T03:22:26;109.1;;;58;;
51194;SDS011;37259;49.972;19.850;2024-01-11T03:23:26;109.1;;;58;;
51194;SDS011;37259;49.972;19.850;2024-01-11T03:24:26;109.1;;;58;;
51194;SDS011;37259;49.972;19.850;2024-01-11T03:25:26;109.1;;;58;;
51194;SDS011;37259;49.972;19.850;2024-01-11T03:26:26;109.1;;;58;;
51194;SDS011;37259;49.972;19.850;2024-01-11T03:27:26;109.1;;;58;;
51194;SDS011;37259;49.972;19.850;2024-01-11T03:28:26;109.1;;;58;;
51194;SDS011;37259;49.972;19.850;2024-01-11T03:29:26;109.1;;;58;;
51194;SDS011;37259;49.972;19.850;2024-01-11T03:30:27;109.1;;;58;;
51194;SDS011;37259;49.972;19.850;2024-01-11T03:31:26;109.1;;;58;;
51194;SDS011;37259;49.972;19.850;2024-01-11T03:32:26;109.1;;;58;;
51194;SDS011;37259;49.972;19.850;2024-01-11T03:33:26;109.1;;;58;;
51194;SDS011;37259;49.972;19.850;2024-01-11T03:34:26;109.1;;;58;;
51194;SDS011;37259;49.972;19.850;2024-01-11T03:35:26;109.1;;;58;;
51194;SDS011;37259;49.972;19.850;2024-01-11T03:36:26;109.1;;;58;;
51194;SDS011;37259;49.972;19.850;2024-01-11T03:37:26;109.1;;;58;;
51194;SDS011;37259;49.972;19.850;2024-01-11T03:38:26;109.1;;;58;;
51194;SDS011;37259;49.972;19.850;2024-01-11T03:39:26;109.1;;;58;;
51194;SDS011;37259;49.972;19.850;2024-01-11T03:40:26;109.1;;;58;;
51194;SDS011;37259;49.972;19.850;2024-01-11T03:41:28;109.1;;;58;;
51194;SDS011;37259;49.972;19.850;2024-01-11T03:42:26;109.1;;;58;;
51194;SDS011;37259;49.972;19.850;2024-01-11T03:43:26;82.6;;;49.2;;
51194;SDS011;37259;49.972;19.850;2024-01-11T03:44:26;82.6;;;49.2;;
51194;SDS011;37259;49.972;19.850;2024-01-11T03:45:26;82.6;;;49.2;;
51194;SDS011;37259;49.972;19.850;2024-01-11T03:46:26;82.6;;;49.2;;
51194;SDS011;37259;49.972;19.850;2024-01-11T03:47:26;82.6;;;49.2;;
51194;SDS011;37259;49.972;19.850;2024-01-11T03:48:26;82.6;;;49.2;;
51194;SDS011;37259;49.972;19.850;2024-01-11T03:49:26;82.6;;;49.2;;
51194;SDS011;37259;49.972;19.850;2024-01-11T03:50:26;82.6;;;49.2;;
51194;SDS011;37259;49.972;19.850;2024-01-11T03:51:26;82.6;;;49.2;;
51194;SDS011;37259;49.972;19.850;2024-01-11T03:52:26;82.6;;;49.2;;
51194;SDS011;37259;49.972;19.850;2024-01-11T03:53:26;82.6;;;49.2;;
51194;SDS011;37259;49.972;19.850;2024-01-11T03:54:26;82.6;;;49.2;;
51194;SDS011;37259;49.972;19.850;2024-01-11T03:55:26;82.6;;;49.2;;
51194;SDS011;37259;49.972;19.850;2024-01-11T03:56:26;82.6;;;49.2;;
51194;SDS011;37259;49.972;19.850;2024-01-11T03:57:26;82.6;;;49.2;;
51194;SDS011;37259;49.972;19.850;2024-01-11T03:58:26;82.6;;;49.2;;
51194;SDS011;37259;49.972;19.850;2024-01-11T03:59:26;82.6;;;49.2;;
51194;SDS011;37259;49.972;19.850;2024-01-11T04:00:26;82.6;;;49.2;;
51194;SDS011;37259;49.972;19.850;2024-01-11T04:01:26;82.6;;;49.2;;
51194;SDS011;37259;49.972;19.850;2024-01-11T04:02:26;82.6;;;49.2;;
51194;SDS011;37259;49.972;19.850;2024-01-11T04:03:26;82.6;;;49.2;;
51194;SDS011;37259;49.972;19.850;2024-01-11T04:04:26;82.6;;;49.2;;
51194;SDS011;37259;49.972;19.850;2024-01-11T04:05:26;82.6;;;49.2;;
51194;SDS011;37259;49.972;19.850;2024-01-11T04:06:26;82.6;;;49.2;;
51194;SDS011;37259;49.972;19.850;2024-01-11T04:07:26;82.6;;;49.2;;
51194;SDS011;37259;49.972;19.850;2024-01-11T04:08:26;82.6;;;49.2;;
51194;SDS011;37259;49.972;19.850;2024-01-11T04:09:26;82.6;;;49.2;;
51194;SDS011;37259;49.972;19.850;2024-01-11T04:10:26;82.6;;;49.2;;
51194;SDS011;37259;49.972;19.850;2024-01-11T04:11:27;82.6;;;49.2;;
51194;SDS011;37259;49.972;19.850;2024-01-11T04:12:26;82.6;;;49.2;;
51194;SDS011;37259;49.972;19.850;2024-01-11T04:13:26;85.1;;;44.4;;
51194;SDS011;37259;49.972;19.850;2024-01-11T04:14:26;85.1;;;44.4;;
51194;SDS011;37259;49.972;19.850;2024-01-11T04:15:26;85.1;;;44.4;;
51194;SDS011;37259;49.972;19.850;2024-01-11T04:16:26;85.1;;;44.4;;
51194;SDS011;37259;49.972;19.850;2024-01-11T04:17:26;85.1;;;44.4;;
51194;SDS011;37259;49.972;19.850;2024-01-11T04:18:26;85.1;;;44.4;;
51194;SDS011;37259;49.972;19.850;2024-01-11T04:19:26;85.1;;;44.4;;
51194;SDS011;37259;49.972;19.850;2024-01-11T04:20:26;85.1;;;44.4;;
51194;SDS011;37259;49.972;19.850;2024-01-11T04:21:27;85.1;;;44.4;;
51194;SDS011;37259;49.972;19.850;2024-01-11T04:22:27;85.1;;;44.4;;
51194;SDS011;37259;49.972;19.850;2024-01-11T04:23:26;85.1;;;44.4;;
51194;SDS011;37259;49.972;19.850;2024-01-11T04:24:26;85.1;;;44.4;;
51194;SDS011;37259;49.972;19.850;2024-01-11T04:25:26;85.1;;;44.4;;
51194;SDS011;37259;49.972;19.850;2024-01-11T04:26:26;85.1;;;44.4;;
51194;SDS011;37259;49.972;19.850;2024-01-11T04:27:26;85.1;;;44.4;;
51194;SDS011;37259;49.972;19.850;2024-01-11T04:28:26;85.1;;;44.4;;
51194;SDS011;37259;49.972;19.850;2024-01-11T04:29:26;85.1;;;44.4;;
51194;SDS011;37259;49.972;19.850;2024-01-11T04:30:26;85.1;;;44.4;;
51194;SDS011;37259;49.972;19.850;2024-01-11T04:31:26;85.1;;;44.4;;
51194;SDS011;37259;49.972;19.850;2024-01-11T04:32:26;85.1;;;44.4;;
51194;SDS011;37259;49.972;19.850;2024-01-11T04:33:26;85.1;;;44.4;;
51194;SDS011;37259;49.972;19.850;2024-01-11T04:34:26;85.1;;;44.4;;
51194;SDS011;37259;49.972;19.850;2024-01-11T04:35:26;85.1;;;44.4;;
51194;SDS011;37259;49.972;19.850;2024-01-11T04:36:26;85.1;;;44.4;;
51194;SDS011;37259;49.972;19.850;2024-01-11T04:37:26;85.1;;;44.4;;
51194;SDS011;37259;49.972;19.850;2024-01-11T04:38:26;85.1;;;44.4;;
51194;SDS011;37259;49.972;19.850;2024-01-11T04:39:26;85.1;;;44.4;;
51194;SDS011;37259;49.972;19.850;2024-01-11T04:40:26;85.1;;;44.4;;
51194;SDS011;37259;49.972;19.850;2024-01-11T04:41:26;85.1;;;44.4;;
51194;SDS011;37259;49.972;19.850;2024-01-11T04:42:26;85.1;;;44.4;;
51194;SDS011;37259;49.972;19.850;2024-01-11T04:43:26;61.3;;;34;;
51194;SDS011;37259;49.972;19.850;2024-01-11T04:44:26;61.3;;;34;;
51194;SDS011;37259;49.972;19.850;2024-01-11T04:45:26;61.3;;;34;;
51194;SDS011;37259;49.972;19.850;2024-01-11T04:46:26;61.3;;;34;;
51194;SDS011;37259;49.972;19.850;2024-01-11T04:47:26;61.3;;;34;;
51194;SDS011;37259;49.972;19.850;2024-01-11T04:48:26;61.3;;;34;;
51194;SDS011;37259;49.972;19.850;2024-01-11T04:49:26;61.3;;;34;;
51194;SDS011;37259;49.972;19.850;2024-01-11T04:50:26;61.3;;;34;;
51194;SDS011;37259;49.972;19.850;2024-01-11T04:51:26;61.3;;;34;;
51194;SDS011;37259;49.972;19.850;2024-01-11T04:52:26;61.3;;;34;;
51194;SDS011;37259;49.972;19.850;2024-01-11T04:53:26;61.3;;;34;;
51194;SDS011;37259;49.972;19.850;2024-01-11T04:54:26;61.3;;;34;;
51194;SDS011;37259;49.972;19.850;2024-01-11T04:55:26;61.3;;;34;;
51194;SDS011;37259;49.972;19.850;2024-01-11T04:56:26;61.3;;;34;;
51194;SDS011;37259;49.972;19.850;2024-01-11T04:57:26;61.3;;;34;;
51194;SDS011;37259;49.972;19.850;2024-01-11T04:58:26;61.3;;;34;;
51194;SDS011;37259;49.972;19.850;2024-01-11T04:59:26;61.3;;;34;;
51194;SDS011;37259;49.972;19.850;2024-01-11T05:00:26;61.3;;;34;;
51194;SDS011;37259;49.972;19.850;2024-01-11T05:01:26;61.3;;;34;;
51194;SDS011;37259;49.972;19.850;2024-01-11T05:02:26;61.3;;;34;;
51194;SDS011;37259;49.972;19.850;2024-01-11T05:03:27;61.3;;;34;;
51194;SDS011;37259;49.972;19.850;2024-01-11T05:04:26;61.3;;;34;;
51194;SDS011;37259;49.972;19.850;2024-01-11T05:05:26;61.3;;;34;;
51194;SDS011;37259;49.972;19.850;2024-01-11T05:06:26;61.3;;;34;;
51194;SDS011;37259;49.972;19.850;2024-01-11T05:07:26;61.3;;;34;;
51194;SDS011;37259;49.972;19.850;2024-01-11T05:08:26;61.3;;;34;;
51194;SDS011;37259;49.972;19.850;2024-01-11T05:09:26;61.3;;;34;;
51194;SDS011;37259;49.972;19.850;2024-01-11T05:10:26;61.3;;;34;;
51194;SDS011;37259;49.972;19.850;2024-01-11T05:11:26;61.3;;;34;;
51194;SDS011;37259;49.972;19.850;2024-01-11T05:12:26;59.2;;;30.7;;
51194;SDS011;37259;49.972;19.850;2024-01-11T05:13:26;59.2;;;30.7;;
51194;SDS011;37259;49.972;19.850;2024-01-11T05:14:27;59.2;;;30.7;;
51194;SDS011;37259;49.972;19.850;2024-01-11T05:15:26;59.2;;;30.7;;
51194;SDS011;37259;49.972;19.850;2024-01-11T05:16:27;59.2;;;30.7;;
51194;SDS011;37259;49.972;19.850;2024-01-11T05:17:26;59.2;;;30.7;;
51194;SDS011;37259;49.972;19.850;2024-01-11T05:18:26;59.2;;;30.7;;
51194;SDS011;37259;49.972;19.850;2024-01-11T05:19:26;59.2;;;30.7;;
51194;SDS011;37259;49.972;19.850;2024-01-11T05:20:26;59.2;;;30.7;;
51194;SDS011;37259;49.972;19.850;2024-01-11T05:21:26;59.2;;;30.7;;
51194;SDS011;37259;49.972;19.850;2024-01-11T05:22:26;59.2;;;30.7;;
51194;SDS011;37259;49.972;19.850;2024-01-11T05:23:26;59.2;;;30.7;;
51194;SDS011;37259;49.972;19.850;2024-01-11T05:24:26;59.2;;;30.7;;
51194;SDS011;37259;49.972;19.850;2024-01-11T05:25:26;59.2;;;30.7;;
51194;SDS011;37259;49.972;19.850;2024-01-11T05:26:26;59.2;;;30.7;;
51194;SDS011;37259;49.972;19.850;2024-01-11T05:27:26;59.2;;;30.7;;
51194;SDS011;37259;49.972;19.850;2024-01-11T05:28:26;59.2;;;30.7;;
51194;SDS011;37259;49.972;19.850;2024-01-11T05:29:26;59.2;;;30.7;;
51194;SDS011;37259;49.972;19.850;2024-01-11T05:30:26;59.2;;;30.7;;
51194;SDS011;37259;49.972;19.850;2024-01-11T05:31:26;59.2;;;30.7;;
51194;SDS011;37259;49.972;19.850;2024-01-11T05:32:26;59.2;;;30.7;;
51194;SDS011;37259;49.972;19.850;2024-01-11T05:33:26;59.2;;;30.7;;
51194;SDS011;37259;49.972;19.850;2024-01-11T05:34:26;59.2;;;30.7;;
51194;SDS011;37259;49.972;19.850;2024-01-11T05:35:26;59.2;;;30.7;;
51194;SDS011;37259;49.972;19.850;2024-01-11T05:36:26;59.2;;;30.7;;
51194;SDS011;37259;49.972;19.850;2024-01-11T05:37:26;59.2;;;30.7;;
51194;SDS011;37259;49.972;19.850;2024-01-11T05:38:26;59.2;;;30.7;;
51194;SDS011;37259;49.972;19.850;2024-01-11T05:39:26;59.2;;;30.7;;
51194;SDS011;37259;49.972;19.850;2024-01-11T05:40:26;59.2;;;30.7;;
51194;SDS011;37259;49.972;19.850;2024-01-11T05:41:26;59.2;;;30.7;;
51194;SDS011;37259;49.972;19.850;2024-01-11T05:42:26;38.7;;;23.1;;
51194;SDS011;37259;49.972;19.850;2024-01-11T05:43:26;38.7;;;23.1;;
51194;SDS011;37259;49.972;19.850;2024-01-11T05:44:26;38.7;;;23.1;;
51194;SDS011;37259;49.972;19.850;2024-01-11T05:45:26;38.7;;;23.1;;
51194;SDS011;37259;49.972;19.850;2024-01-11T05:46:26;38.7;;;23.1;;
51194;SDS011;37259;49.972;19.850;2024-01-11T05:47:26;38.7;;;23.1;;
51194;SDS011;37259;49.972;19.850;2024-01-11T05:48:26;38.7;;;23.1;;
51194;SDS011;37259;49.972;19.850;2024-01-11T05:49:26;38.7;;;23.1;;
51194;SDS011;37259;49.972;19.850;2024-01-11T05:50:26;38.7;;;23.1;;
51194;SDS011;37259;49.972;19.850;2024-01-11T05:51:26;38.7;;;23.1;;
51194;SDS011;37259;49.972;19.850;2024-01-11T05:52:26;38.7;;;23.1;;
51194;SDS011;37259;49.972;19.850;2024-01-11T05:53:26;38.7;;;23.1;;
51194;SDS011;37259;49.972;19.850;2024-01-11T05:54:26;38.7;;;23.1;;
51194;SDS011;37259;49.972;19.850;2024-01-11T05:55:26;38.7;;;23.1;;
51194;SDS011;37259;49.972;19.850;2024-01-11T05:56:26;38.7;;;23.1;;
51194;SDS011;37259;49.972;19.850;2024-01-11T05:57:26;38.7;;;23.1;;